sensor_id;sensor_type;location;lat;lon;timestamp;P1;durP1;ratioP1;P2;durP2;ratioP2
59685;SDS011;45554;51.096;16.976;2024-01-30T00:02:27;15.60;;;8.10;;
59685;SDS011;45554;51.096;16.976;2024-01-30T00:04:55;15.90;;;8.20;;
59685;SDS011;45554;51.096;16.976;2024-01-30T00:07:31;14.80;;;7.90;;
59685;SDS011;45554;51.096;16.976;2024-01-30T00:10:00;16.70;;;8.50;;
59685;SDS011;45554;51.096;16.976;2024-01-30T00:12:29;15.00;;;8.20;;
59685;SDS011;45554;51.096;16.976;2024-01-30T00:14:57;17.00;;;7.90;;
59685;SDS011;45554;51.096;16.976;2024-01-30T00:17:26;15.70;;;8.10;;
59685;SDS011;45554;51.096;16.976;2024-01-30T00:20:00;15.90;;;7.90;;
59685;SDS011;45554;51.096;16.976;2024-01-30T00:22:33;16.30;;;7.90;;
59685;SDS011;45554;51.096;16.976;2024-01-30T00:25:01;17.30;;;7.80;;
59685;SDS011;45554;51.096;16.976;2024-01-30T00:27:31;16.90;;;7.80;;
59685;SDS011;45554;51.096;16.976;2024-01-30T00:29:59;16.50;;;8.30;;
59685;SDS011;45554;51.096;16.976;2024-01-30T00:32:28;16.60;;;8.10;;
59685;SDS011;45554;51.096;16.976;2024-01-30T00:34:56;13.80;;;8.00;;
59685;SDS011;45554;51.096;16.976;2024-01-30T00:37:24;17.50;;;8.50;;
59685;SDS011;45554;51.096;16.976;2024-01-30T00:39:53;13.90;;;7.40;;
59685;SDS011;45554;51.096;16.976;2024-01-30T00:42:21;15.70;;;8.80;;
59685;SDS011;45554;51.096;16.976;2024-01-30T00:44:53;14.60;;;8.20;;
59685;SDS011;45554;51.096;16.976;2024-01-30T00:47:28;15.30;;;8.80;;
59685;SDS011;45554;51.096;16.976;2024-01-30T00:50:00;18.40;;;9.00;;
59685;SDS011;45554;51.096;16.976;2024-01-30T00:52:28;13.70;;;7.80;;
59685;SDS011;45554;51.096;16.976;2024-01-30T00:55:40;15.60;;;8.40;;
59685;SDS011;45554;51.096;16.976;2024-01-30T00:58:09;14.20;;;7.30;;
59685;SDS011;45554;51.096;16.976;2024-01-30T01:00:42;14.00;;;7.60;;
59685;SDS011;45554;51.096;16.976;2024-01-30T01:03:11;14.20;;;7.90;;
59685;SDS011;45554;51.096;16.976;2024-01-30T01:05:39;13.30;;;8.20;;
59685;SDS011;45554;51.096;16.976;2024-01-30T01:08:10;13.50;;;7.60;;
59685;SDS011;45554;51.096;16.976;2024-01-30T01:10:39;14.30;;;7.80;;
59685;SDS011;45554;51.096;16.976;2024-01-30T01:13:09;16.60;;;7.40;;
59685;SDS011;45554;51.096;16.976;2024-01-30T01:15:40;12.70;;;7.00;;
59685;SDS011;45554;51.096;16.976;2024-01-30T01:18:09;15.00;;;8.40;;
59685;SDS011;45554;51.096;16.976;2024-01-30T01:20:37;15.30;;;7.90;;
59685;SDS011;45554;51.096;16.976;2024-01-30T01:23:05;14.00;;;8.00;;
59685;SDS011;45554;51.096;16.976;2024-01-30T01:25:34;16.60;;;8.80;;
59685;SDS011;45554;51.096;16.976;2024-01-30T01:28:02;16.30;;;8.00;;
59685;SDS011;45554;51.096;16.976;2024-01-30T01:30:31;15.30;;;8.60;;
59685;SDS011;45554;51.096;16.976;2024-01-30T01:35:30;15.30;;;8.50;;
59685;SDS011;45554;51.096;16.976;2024-01-30T01:37:58;17.20;;;8.70;;
59685;SDS011;45554;51.096;16.976;2024-01-30T01:40:28;15.30;;;8.30;;
59685;SDS011;45554;51.096;16.976;2024-01-30T01:42:57;14.60;;;8.60;;
59685;SDS011;45554;51.096;16.976;2024-01-30T01:45:25;15.60;;;8.80;;
59685;SDS011;45554;51.096;16.976;2024-01-30T01:47:53;15.80;;;8.80;;
59685;SDS011;45554;51.096;16.976;2024-01-30T01:50:22;16.20;;;8.90;;
59685;SDS011;45554;51.096;16.976;2024-01-30T01:52:57;15.60;;;8.80;;
59685;SDS011;45554;51.096;16.976;2024-01-30T01:55:26;15.50;;;8.10;;
59685;SDS011;45554;51.096;16.976;2024-01-30T01:57:57;16.50;;;8.30;;
59685;SDS011;45554;51.096;16.976;2024-01-30T02:00:27;19.30;;;8.80;;
59685;SDS011;45554;51.096;16.976;2024-01-30T02:02:57;17.50;;;8.70;;
59685;SDS011;45554;51.096;16.976;2024-01-30T02:07:28;17.60;;;9.00;;
59685;SDS011;45554;51.096;16.976;2024-01-30T02:09:56;16.80;;;8.80;;
59685;SDS011;45554;51.096;16.976;2024-01-30T02:12:25;18.00;;;9.10;;
59685;SDS011;45554;51.096;16.976;2024-01-30T02:14:53;15.60;;;9.00;;
59685;SDS011;45554;51.096;16.976;2024-01-30T02:17:27;16.50;;;8.70;;
59685;SDS011;45554;51.096;16.976;2024-01-30T02:19:56;19.10;;;8.90;;
59685;SDS011;45554;51.096;16.976;2024-01-30T02:24:53;16.60;;;8.90;;
59685;SDS011;45554;51.096;16.976;2024-01-30T02:27:22;17.10;;;8.80;;
59685;SDS011;45554;51.096;16.976;2024-01-30T02:29:57;13.20;;;7.50;;
59685;SDS011;45554;51.096;16.976;2024-01-30T02:32:31;14.80;;;8.10;;
59685;SDS011;45554;51.096;16.976;2024-01-30T02:34:59;13.90;;;8.00;;
59685;SDS011;45554;51.096;16.976;2024-01-30T02:37:29;17.40;;;8.10;;
59685;SDS011;45554;51.096;16.976;2024-01-30T02:39:58;15.20;;;7.80;;
59685;SDS011;45554;51.096;16.976;2024-01-30T02:42:26;13.90;;;8.30;;
59685;SDS011;45554;51.096;16.976;2024-01-30T02:45:00;15.40;;;8.70;;
59685;SDS011;45554;51.096;16.976;2024-01-30T02:47:28;14.30;;;7.30;;
59685;SDS011;45554;51.096;16.976;2024-01-30T02:49:58;14.60;;;8.00;;
59685;SDS011;45554;51.096;16.976;2024-01-30T02:52:28;13.70;;;7.80;;
59685;SDS011;45554;51.096;16.976;2024-01-30T02:54:58;15.60;;;8.40;;
59685;SDS011;45554;51.096;16.976;2024-01-30T02:57:27;13.60;;;8.10;;
59685;SDS011;45554;51.096;16.976;2024-01-30T02:59:55;15.60;;;7.90;;
59685;SDS011;45554;51.096;16.976;2024-01-30T03:02:44;13.10;;;7.40;;
59685;SDS011;45554;51.096;16.976;2024-01-30T03:05:12;14.80;;;7.90;;
59685;SDS011;45554;51.096;16.976;2024-01-30T03:07:40;14.70;;;8.70;;
59685;SDS011;45554;51.096;16.976;2024-01-30T03:10:08;14.60;;;8.20;;
59685;SDS011;45554;51.096;16.976;2024-01-30T03:12:37;15.90;;;8.00;;
59685;SDS011;45554;51.096;16.976;2024-01-30T03:15:08;16.50;;;9.10;;
59685;SDS011;45554;51.096;16.976;2024-01-30T03:17:39;17.30;;;8.70;;
59685;SDS011;45554;51.096;16.976;2024-01-30T03:20:07;16.30;;;8.30;;
59685;SDS011;45554;51.096;16.976;2024-01-30T03:25:05;15.10;;;8.50;;
59685;SDS011;45554;51.096;16.976;2024-01-30T03:27:38;16.60;;;8.60;;
59685;SDS011;45554;51.096;16.976;2024-01-30T03:30:08;17.80;;;8.50;;
59685;SDS011;45554;51.096;16.976;2024-01-30T03:32:40;17.80;;;8.60;;
59685;SDS011;45554;51.096;16.976;2024-01-30T03:35:12;14.00;;;8.10;;
59685;SDS011;45554;51.096;16.976;2024-01-30T03:37:43;17.30;;;8.30;;
59685;SDS011;45554;51.096;16.976;2024-01-30T03:40:11;15.60;;;8.60;;
59685;SDS011;45554;51.096;16.976;2024-01-30T03:42:40;13.40;;;7.70;;
59685;SDS011;45554;51.096;16.976;2024-01-30T03:45:09;14.70;;;8.70;;
59685;SDS011;45554;51.096;16.976;2024-01-30T03:47:42;14.80;;;8.50;;
59685;SDS011;45554;51.096;16.976;2024-01-30T03:50:14;13.50;;;7.90;;
59685;SDS011;45554;51.096;16.976;2024-01-30T03:52:45;14.60;;;8.40;;
59685;SDS011;45554;51.096;16.976;2024-01-30T03:55:13;15.60;;;8.90;;
59685;SDS011;45554;51.096;16.976;2024-01-30T03:57:44;17.60;;;8.30;;
59685;SDS011;45554;51.096;16.976;2024-01-30T04:00:15;15.90;;;8.20;;
59685;SDS011;45554;51.096;16.976;2024-01-30T04:02:44;18.50;;;8.80;;
59685;SDS011;45554;51.096;16.976;2024-01-30T04:05:12;15.00;;;7.70;;
59685;SDS011;45554;51.096;16.976;2024-01-30T04:07:44;14.90;;;7.70;;
59685;SDS011;45554;51.096;16.976;2024-01-30T04:10:13;14.00;;;8.40;;
59685;SDS011;45554;51.096;16.976;2024-01-30T04:12:42;16.30;;;9.40;;
59685;SDS011;45554;51.096;16.976;2024-01-30T04:15:10;13.20;;;7.80;;
59685;SDS011;45554;51.096;16.976;2024-01-30T04:17:40;15.10;;;8.70;;
59685;SDS011;45554;51.096;16.976;2024-01-30T04:20:13;16.60;;;8.50;;
59685;SDS011;45554;51.096;16.976;2024-01-30T04:22:43;16.50;;;8.70;;
59685;SDS011;45554;51.096;16.976;2024-01-30T04:25:17;15.50;;;9.20;;
59685;SDS011;45554;51.096;16.976;2024-01-30T04:27:48;15.20;;;9.00;;
59685;SDS011;45554;51.096;16.976;2024-01-30T04:30:21;14.80;;;8.80;;
59685;SDS011;45554;51.096;16.976;2024-01-30T04:32:49;17.20;;;8.60;;
59685;SDS011;45554;51.096;16.976;2024-01-30T04:35:17;16.70;;;9.50;;
59685;SDS011;45554;51.096;16.976;2024-01-30T04:37:45;16.00;;;8.90;;
59685;SDS011;45554;51.096;16.976;2024-01-30T04:40:14;16.90;;;9.50;;
59685;SDS011;45554;51.096;16.976;2024-01-30T04:42:51;18.60;;;9.10;;
59685;SDS011;45554;51.096;16.976;2024-01-30T04:45:19;14.90;;;9.30;;
59685;SDS011;45554;51.096;16.976;2024-01-30T04:48:31;17.20;;;8.50;;
59685;SDS011;45554;51.096;16.976;2024-01-30T04:51:00;18.40;;;10.10;;
59685;SDS011;45554;51.096;16.976;2024-01-30T04:53:30;18.90;;;8.50;;
59685;SDS011;45554;51.096;16.976;2024-01-30T04:55:59;18.70;;;9.50;;
59685;SDS011;45554;51.096;16.976;2024-01-30T04:58:27;18.60;;;11.20;;
59685;SDS011;45554;51.096;16.976;2024-01-30T05:00:55;16.10;;;9.00;;
59685;SDS011;45554;51.096;16.976;2024-01-30T05:03:25;18.30;;;10.40;;
59685;SDS011;45554;51.096;16.976;2024-01-30T05:05:54;18.40;;;9.50;;
59685;SDS011;45554;51.096;16.976;2024-01-30T05:08:22;17.70;;;9.60;;
59685;SDS011;45554;51.096;16.976;2024-01-30T05:12:24;17.40;;;8.90;;
59685;SDS011;45554;51.096;16.976;2024-01-30T05:14:55;16.30;;;8.60;;
59685;SDS011;45554;51.096;16.976;2024-01-30T05:17:24;16.40;;;8.40;;
59685;SDS011;45554;51.096;16.976;2024-01-30T05:19:52;15.30;;;8.50;;
59685;SDS011;45554;51.096;16.976;2024-01-30T05:22:20;17.10;;;8.80;;
59685;SDS011;45554;51.096;16.976;2024-01-30T05:24:49;15.90;;;8.90;;
59685;SDS011;45554;51.096;16.976;2024-01-30T05:27:17;17.00;;;9.60;;
59685;SDS011;45554;51.096;16.976;2024-01-30T05:31:50;14.90;;;8.80;;
59685;SDS011;45554;51.096;16.976;2024-01-30T05:34:18;15.60;;;8.70;;
59685;SDS011;45554;51.096;16.976;2024-01-30T05:36:47;16.60;;;9.30;;
59685;SDS011;45554;51.096;16.976;2024-01-30T05:39:15;20.30;;;9.50;;
59685;SDS011;45554;51.096;16.976;2024-01-30T05:41:48;15.80;;;8.70;;
59685;SDS011;45554;51.096;16.976;2024-01-30T05:44:21;15.20;;;8.40;;
59685;SDS011;45554;51.096;16.976;2024-01-30T05:46:49;15.20;;;9.10;;
59685;SDS011;45554;51.096;16.976;2024-01-30T05:49:17;16.50;;;8.30;;
59685;SDS011;45554;51.096;16.976;2024-01-30T05:51:45;17.10;;;8.70;;
59685;SDS011;45554;51.096;16.976;2024-01-30T05:54:19;18.20;;;9.00;;
59685;SDS011;45554;51.096;16.976;2024-01-30T05:56:47;15.90;;;8.20;;
59685;SDS011;45554;51.096;16.976;2024-01-30T05:59:16;18.60;;;9.00;;
59685;SDS011;45554;51.096;16.976;2024-01-30T06:01:47;16.80;;;9.40;;
59685;SDS011;45554;51.096;16.976;2024-01-30T06:04:17;16.50;;;9.10;;
59685;SDS011;45554;51.096;16.976;2024-01-30T06:06:45;16.90;;;8.40;;
59685;SDS011;45554;51.096;16.976;2024-01-30T06:09:13;17.50;;;8.80;;
59685;SDS011;45554;51.096;16.976;2024-01-30T06:11:42;17.20;;;9.20;;
59685;SDS011;45554;51.096;16.976;2024-01-30T06:14:14;15.30;;;9.20;;
59685;SDS011;45554;51.096;16.976;2024-01-30T06:16:42;18.50;;;8.70;;
59685;SDS011;45554;51.096;16.976;2024-01-30T06:19:10;17.10;;;8.50;;
59685;SDS011;45554;51.096;16.976;2024-01-30T06:21:40;16.10;;;8.50;;
59685;SDS011;45554;51.096;16.976;2024-01-30T06:24:14;13.80;;;8.60;;
59685;SDS011;45554;51.096;16.976;2024-01-30T06:26:43;16.90;;;8.60;;
59685;SDS011;45554;51.096;16.976;2024-01-30T06:29:11;16.50;;;8.20;;
59685;SDS011;45554;51.096;16.976;2024-01-30T06:31:40;16.10;;;8.40;;
59685;SDS011;45554;51.096;16.976;2024-01-30T06:34:09;15.50;;;7.80;;
59685;SDS011;45554;51.096;16.976;2024-01-30T06:36:39;13.90;;;8.20;;
59685;SDS011;45554;51.096;16.976;2024-01-30T06:39:08;16.40;;;8.10;;
59685;SDS011;45554;51.096;16.976;2024-01-30T06:41:36;17.30;;;8.30;;
59685;SDS011;45554;51.096;16.976;2024-01-30T06:44:04;20.70;;;8.00;;
59685;SDS011;45554;51.096;16.976;2024-01-30T06:46:35;16.20;;;8.30;;
59685;SDS011;45554;51.096;16.976;2024-01-30T06:49:03;14.10;;;7.90;;
59685;SDS011;45554;51.096;16.976;2024-01-30T06:51:31;13.40;;;7.80;;
59685;SDS011;45554;51.096;16.976;2024-01-30T06:53:59;15.20;;;8.10;;
59685;SDS011;45554;51.096;16.976;2024-01-30T06:56:28;18.40;;;7.80;;
59685;SDS011;45554;51.096;16.976;2024-01-30T06:58:58;14.60;;;8.50;;
59685;SDS011;45554;51.096;16.976;2024-01-30T07:01:37;16.30;;;7.60;;
59685;SDS011;45554;51.096;16.976;2024-01-30T07:04:11;13.30;;;7.10;;
59685;SDS011;45554;51.096;16.976;2024-01-30T07:06:40;14.00;;;7.40;;
59685;SDS011;45554;51.096;16.976;2024-01-30T07:09:13;14.80;;;7.60;;
59685;SDS011;45554;51.096;16.976;2024-01-30T07:15:34;16.60;;;7.00;;
59685;SDS011;45554;51.096;16.976;2024-01-30T07:18:37;15.60;;;7.20;;
59685;SDS011;45554;51.096;16.976;2024-01-30T07:23:21;19.40;;;8.30;;
59685;SDS011;45554;51.096;16.976;2024-01-30T07:26:20;11.70;;;7.50;;
59685;SDS011;45554;51.096;16.976;2024-01-30T07:32:26;15.10;;;8.20;;
59685;SDS011;45554;51.096;16.976;2024-01-30T07:44:27;13.80;;;7.00;;
59685;SDS011;45554;51.096;16.976;2024-01-30T07:51:50;12.20;;;6.70;;
59685;SDS011;45554;51.096;16.976;2024-01-30T16:46:17;22.80;;;12.50;;
59685;SDS011;45554;51.096;16.976;2024-01-30T16:55:53;21.50;;;12.90;;
59685;SDS011;45554;51.096;16.976;2024-01-30T17:56:24;30.70;;;18.90;;
59685;SDS011;45554;51.096;16.976;2024-01-30T18:06:26;31.70;;;18.70;;
59685;SDS011;45554;51.096;16.976;2024-01-30T18:57:51;30.20;;;18.30;;
59685;SDS011;45554;51.096;16.976;2024-01-30T19:45:58;31.30;;;17.90;;
59685;SDS011;45554;51.096;16.976;2024-01-30T23:27:02;24.80;;;14.80;;
